WAAA/UPG METAR and TAF weather

Enter ICAO airport designator
Station Type Date Time Source
WAAA METAR 2022/06/29 01:00 UTC NOAA

WAAA 290100Z 12002KT 9999 FEW019 27/25 Q1008 NOSIG


Station Type Date Time Source
WAAA Decoded METAR 2022/06/29 01:00 UTC NOAA

Ujung Pandang / Hasanuddin, Indonesia (WAAA) 05-04S 119-33E 14M
Jun 28, 2022 - 09:00 PM EDT / 2022.06.29 0100 UTC
Wind: from the ESE (120 degrees) at 2 MPH (2 KT):0
Visibility: greater than 7 mile(s):0
Sky conditions: mostly clear
Temperature: 80 F (27 C)
Dew Point: 77 F (25 C)
Relative Humidity: 88%
Pressure (altimeter): 29.77 in. Hg (1008 hPa)
ob: WAAA 290100Z 12002KT 9999 FEW019 27/25 Q1008 NOSIG
cycle: 1

Station Type Date Time Source
WAAA TAF 2022/06/28 18:57 UTC NOAA

TAF WAAA 281700Z 2818/2924 11004KT 8000 FEW019
BECMG 2901/2903 29010KT

Example: see airport list